Time;durP1;ratioP1;P1;durP2;ratioP2;P2;SDS_P1;SDS_P2;PMS_P1;PMS_P2;Temp;Humidity;BMP_temperature;BMP_pressure;BME280_temperature;BME280_humidity;BME280_pressure;Samples;Min_cycle;Max_cycle;Signal;HPM_P1;HPM_P2
2022/08/26 00:00:50;;;;;;;15.48;10.35;;;22.10;99.90;;;;;;4957397;28;20050;-95
2022/08/26 00:03:16;;;;;;;19.10;11.30;;;21.90;99.90;;;;;;4957448;28;20063;-94
2022/08/26 00:05:43;;;;;;;16.55;10.68;;;21.90;99.90;;;;;;4975244;28;20035;-95
2022/08/26 00:08:11;;;;;;;15.57;10.68;;;21.80;99.90;;;;;;4974675;28;20495;-95
2022/08/26 00:10:37;;;;;;;17.80;10.57;;;21.70;99.90;;;;;;4974594;28;20054;-95
2022/08/26 00:13:05;;;;;;;16.23;10.27;;;21.60;99.90;;;;;;4974977;28;20461;-94
2022/08/26 00:15:30;;;;;;;17.58;10.63;;;21.80;99.90;;;;;;4974669;28;20110;-95
2022/08/26 00:17:56;;;;;;;15.77;10.65;;;21.60;99.90;;;;;;4977266;28;20038;-94
2022/08/26 00:20:26;;;;;;;16.63;10.90;;;21.30;99.90;;;;;;4996711;28;20042;-92
2022/08/26 00:22:52;;;;;;;16.50;11.52;;;21.20;99.90;;;;;;4990961;28;20046;-92
2022/08/26 00:25:18;;;;;;;18.20;12.00;;;21.20;99.90;;;;;;4959382;28;20042;-92
2022/08/26 00:27:44;;;;;;;19.85;12.07;;;21.20;99.90;;;;;;4974288;28;20046;-93
2022/08/26 00:30:14;;;;;;;18.67;11.88;;;21.20;99.90;;;;;;4974648;28;20122;-93
2022/08/26 00:32:40;;;;;;;17.27;11.52;;;21.10;99.90;;;;;;4957162;28;20047;-92
2022/08/26 00:35:07;;;;;;;18.67;11.73;;;21.00;99.90;;;;;;4975461;28;20093;-92
2022/08/26 00:37:33;;;;;;;21.40;11.85;;;21.00;99.90;;;;;;4963669;28;20038;-92
2022/08/26 00:39:59;;;;;;;16.95;12.32;;;21.00;99.90;;;;;;4963500;28;20098;-93
2022/08/26 00:42:25;;;;;;;17.67;12.27;;;20.90;99.90;;;;;;4963128;28;20101;-94
2022/08/26 00:44:51;;;;;;;18.58;11.88;;;20.90;99.90;;;;;;4963707;28;20105;-94
2022/08/26 00:47:33;;;;;;;16.60;11.70;;;20.90;99.90;;;;;;4964450;28;20430;-94
2022/08/26 00:50:00;;;;;;;19.20;11.50;;;20.90;99.90;;;;;;4976451;28;20046;-93
2022/08/26 00:52:28;;;;;;;20.17;12.48;;;20.90;99.90;;;;;;4969776;28;20129;-94
2022/08/26 00:55:25;;;;;;;18.77;12.20;;;21.20;99.90;;;;;;4983496;28;20049;-93
2022/08/26 00:57:52;;;;;;;17.05;11.30;;;20.80;99.90;;;;;;4976898;28;20081;-94
2022/08/26 01:00:25;;;;;;;17.15;11.15;;;20.80;99.90;;;;;;4975317;28;20066;-94
2022/08/26 01:02:52;;;;;;;17.67;11.85;;;20.70;99.90;;;;;;4963474;28;20043;-94
2022/08/26 01:05:18;;;;;;;21.00;12.07;;;20.70;99.90;;;;;;4963390;28;20460;-95
2022/08/26 01:07:44;;;;;;;19.63;12.45;;;20.70;99.90;;;;;;4980685;28;20126;-94
2022/08/26 01:10:15;;;;;;;19.65;12.85;;;20.70;99.90;;;;;;4963026;28;20137;-94
2022/08/26 01:12:48;;;;;;;20.77;13.93;;;20.50;99.90;;;;;;4963290;28;20055;-95
2022/08/26 01:15:28;;;;;;;20.85;13.85;;;20.70;99.90;;;;;;4980997;28;20129;-93
2022/08/26 01:17:54;;;;;;;18.45;13.82;;;20.60;99.90;;;;;;4963012;28;20395;-94
2022/08/26 01:20:44;;;;;;;26.42;15.60;;;20.40;99.90;;;;;;4980625;28;20050;-95
2022/08/26 01:23:11;;;;;;;21.38;15.90;;;20.30;99.90;;;;;;4963695;28;20046;-94
2022/08/26 01:25:40;;;;;;;25.10;19.33;;;20.40;99.90;;;;;;4962814;28;20499;-94
2022/08/26 01:28:12;;;;;;;25.95;19.85;;;20.20;99.90;;;;;;4980542;28;20047;-91
2022/08/26 01:30:39;;;;;;;26.75;20.48;;;20.20;99.90;;;;;;4979881;28;20039;-93
2022/08/26 01:33:09;;;;;;;27.75;21.60;;;20.70;99.90;;;;;;4963003;28;20086;-93
2022/08/26 01:35:36;;;;;;;29.15;22.02;;;20.30;99.90;;;;;;4962938;28;20134;-94
2022/08/26 01:38:03;;;;;;;32.13;23.20;;;20.30;99.90;;;;;;4962990;28;20395;-94
2022/08/26 01:40:35;;;;;;;32.97;24.02;;;20.00;99.90;;;;;;4980736;28;20046;-93
2022/08/26 01:43:04;;;;;;;33.05;23.77;;;20.00;99.90;;;;;;4963306;28;20081;-93
2022/08/26 01:45:32;;;;;;;32.63;26.48;;;19.90;99.90;;;;;;4980389;28;20043;-94
2022/08/26 01:48:03;;;;;;;35.70;26.10;;;19.90;99.90;;;;;;4960255;28;20051;-94
2022/08/26 01:50:32;;;;;;;35.55;28.05;;;19.90;99.90;;;;;;4960443;28;20051;-94
2022/08/26 01:53:04;;;;;;;33.40;26.83;;;19.80;99.90;;;;;;4977307;28;20042;-94
2022/08/26 01:55:31;;;;;;;38.07;30.00;;;19.80;99.90;;;;;;4982734;28;20034;-94
2022/08/26 01:58:03;;;;;;;39.13;28.58;;;19.80;99.90;;;;;;4966920;28;20067;-94
2022/08/26 02:00:29;;;;;;;41.88;30.80;;;19.70;99.90;;;;;;4980435;28;20098;-93
2022/08/26 02:03:15;;;;;;;39.85;29.38;;;19.70;99.90;;;;;;4959420;28;20054;-93
2022/08/26 02:05:43;;;;;;;37.28;29.98;;;19.70;99.90;;;;;;4971062;28;20118;-93
2022/08/26 02:08:10;;;;;;;40.00;29.85;;;19.60;99.90;;;;;;4977315;28;20047;-93
2022/08/26 02:10:36;;;;;;;44.20;32.60;;;19.60;99.90;;;;;;4959982;28;20105;-94
2022/08/26 02:13:02;;;;;;;43.90;32.00;;;20.10;99.90;;;;;;4959467;28;20477;-94
2022/08/26 02:15:28;;;;;;;43.67;33.30;;;19.50;99.90;;;;;;4959633;28;20070;-93
2022/08/26 02:17:53;;;;;;;45.75;33.05;;;20.00;99.90;;;;;;4959830;28;20078;-94
2022/08/26 02:20:19;;;;;;;45.58;34.45;;;19.50;99.90;;;;;;4959550;28;20078;-95
2022/08/26 02:22:46;;;;;;;45.80;34.25;;;19.60;99.90;;;;;;4977075;28;20486;-96
2022/08/26 02:25:22;;;;;;;49.92;35.00;;;19.50;99.90;;;;;;4961837;28;20035;-94
2022/08/26 02:27:48;;;;;;;49.15;33.42;;;19.50;99.90;;;;;;4959823;28;20043;-95
2022/08/26 02:30:22;;;;;;;51.50;34.22;;;19.50;99.90;;;;;;4970394;28;20123;-94
2022/08/26 02:32:48;;;;;;;48.33;35.30;;;19.60;99.90;;;;;;4999647;28;20039;-95
2022/08/26 02:35:15;;;;;;;48.65;33.53;;;19.80;99.90;;;;;;4983495;28;20047;-94
2022/08/26 02:37:42;;;;;;;51.83;35.03;;;19.60;99.90;;;;;;4961130;28;20049;-94
2022/08/26 02:40:09;;;;;;;50.33;33.83;;;19.60;99.90;;;;;;4962846;28;20067;-95
2022/08/26 02:42:34;;;;;;;47.90;33.45;;;19.60;99.90;;;;;;4977443;28;20117;-95
2022/08/26 02:45:00;;;;;;;46.00;31.70;;;19.70;99.90;;;;;;4960025;28;20117;-95
2022/08/26 02:47:26;;;;;;;48.40;33.65;;;19.70;99.90;;;;;;4960728;28;20050;-95
2022/08/26 02:49:52;;;;;;;52.72;34.42;;;19.70;99.90;;;;;;4970414;28;20073;-95
2022/08/26 02:52:18;;;;;;;54.47;33.58;;;19.90;99.90;;;;;;4965970;28;20104;-95
2022/08/26 02:54:44;;;;;;;50.97;34.03;;;20.20;99.90;;;;;;4979923;28;20039;-96
2022/08/26 02:57:10;;;;;;;50.25;32.78;;;19.80;99.90;;;;;;4980169;28;20042;-95
2022/08/26 02:59:38;;;;;;;48.03;32.80;;;20.30;99.90;;;;;;4972798;28;20055;-94
2022/08/26 03:02:04;;;;;;;46.63;32.08;;;19.80;99.90;;;;;;4966510;28;20043;-94
2022/08/26 03:04:31;;;;;;;44.92;31.38;;;19.80;99.90;;;;;;4962704;28;20084;-95
2022/08/26 03:06:56;;;;;;;44.75;32.95;;;20.20;99.90;;;;;;4960715;28;20160;-95
2022/08/26 03:09:25;;;;;;;46.25;31.27;;;19.80;99.90;;;;;;4958885;28;20054;-94
2022/08/26 03:11:51;;;;;;;45.88;30.70;;;19.80;99.90;;;;;;4959208;28;20047;-94
2022/08/26 03:14:17;;;;;;;47.95;31.38;;;19.80;99.90;;;;;;4976960;28;20046;-94
2022/08/26 03:16:42;;;;;;;42.13;30.90;;;20.20;99.90;;;;;;4958575;28;20053;-94
2022/08/26 03:19:08;;;;;;;43.30;30.60;;;19.80;99.90;;;;;;4958642;28;20038;-94
2022/08/26 03:21:37;;;;;;;44.85;31.52;;;19.80;99.90;;;;;;4975868;28;20078;-95
2022/08/26 03:24:03;;;;;;;46.83;29.65;;;19.80;99.90;;;;;;4976503;28;20062;-94
2022/08/26 03:26:32;;;;;;;41.30;29.15;;;19.80;99.90;;;;;;4991879;28;20050;-94
2022/08/26 03:31:42;;;;;;;49.25;29.02;;;19.90;99.90;;;;;;4982174;28;20055;-95
2022/08/26 03:34:08;;;;;;;42.03;28.60;;;19.90;99.90;;;;;;4985689;28;20046;-94
2022/08/26 03:36:34;;;;;;;42.50;29.17;;;19.90;99.90;;;;;;4980636;28;20054;-96
2022/08/26 03:38:59;;;;;;;40.30;29.23;;;19.90;99.90;;;;;;4963674;28;20042;-94
2022/08/26 03:41:25;;;;;;;43.25;29.10;;;19.90;99.90;;;;;;4977727;28;20089;-96
2022/08/26 03:43:51;;;;;;;44.28;29.80;;;19.90;99.90;;;;;;4962306;28;20047;-94
2022/08/26 03:46:18;;;;;;;41.40;27.92;;;20.10;99.90;;;;;;4960883;28;20077;-95
2022/08/26 03:48:44;;;;;;;49.70;29.17;;;19.90;99.90;;;;;;4975582;28;20051;-95
2022/08/26 03:51:14;;;;;;;42.00;28.90;;;19.90;99.90;;;;;;4975976;28;20050;-94
2022/08/26 03:53:40;;;;;;;44.85;30.27;;;19.90;99.90;;;;;;4958897;28;20395;-95
2022/08/26 03:56:05;;;;;;;44.25;28.30;;;19.90;99.90;;;;;;4957906;28;20039;-96
2022/08/26 03:58:31;;;;;;;42.03;28.00;;;19.90;99.90;;;;;;4957306;28;20164;-95
2022/08/26 04:00:57;;;;;;;37.90;28.02;;;19.90;99.90;;;;;;4975243;28;20133;-96
2022/08/26 04:06:08;;;;;;;40.35;28.52;;;19.90;99.90;;;;;;4966303;28;20047;-95
2022/08/26 04:08:34;;;;;;;43.47;28.85;;;20.50;99.90;;;;;;4978792;28;20031;-94
2022/08/26 04:11:00;;;;;;;48.03;28.05;;;19.90;99.90;;;;;;4965950;28;20502;-94
2022/08/26 04:13:27;;;;;;;40.60;27.60;;;19.80;99.90;;;;;;4973603;28;20085;-94
2022/08/26 04:15:53;;;;;;;46.05;28.33;;;20.10;99.90;;;;;;4957501;28;20041;-94
2022/08/26 04:18:18;;;;;;;42.58;28.40;;;20.20;99.90;;;;;;4975024;28;20043;-95
2022/08/26 04:20:44;;;;;;;42.28;28.92;;;19.90;99.90;;;;;;4958483;28;20049;-95
2022/08/26 04:23:13;;;;;;;43.90;28.38;;;20.50;99.90;;;;;;4975907;28;20070;-94
2022/08/26 04:25:39;;;;;;;42.92;27.58;;;19.90;99.90;;;;;;4975083;28;20471;-94
2022/08/26 04:28:05;;;;;;;38.33;28.00;;;19.90;99.90;;;;;;4957004;28;20050;-95
2022/08/26 04:30:31;;;;;;;40.00;26.45;;;20.00;99.90;;;;;;4974932;28;20039;-95
2022/08/26 04:32:57;;;;;;;39.95;27.55;;;19.90;99.90;;;;;;4958872;28;20190;-96
2022/08/26 04:35:23;;;;;;;37.67;26.40;;;19.90;99.90;;;;;;4957481;28;20043;-94
2022/08/26 04:37:49;;;;;;;38.63;26.85;;;19.90;99.90;;;;;;4958234;28;20065;-94
2022/08/26 04:40:15;;;;;;;42.70;27.73;;;19.90;99.90;;;;;;4958065;28;20404;-94
2022/08/26 04:42:41;;;;;;;41.00;27.40;;;19.90;99.90;;;;;;4976258;28;20047;-94
2022/08/26 04:45:07;;;;;;;39.45;27.25;;;19.90;99.90;;;;;;4957294;28;20513;-94
2022/08/26 04:47:33;;;;;;;41.67;27.15;;;20.00;99.90;;;;;;4957706;28;20134;-94
2022/08/26 04:49:58;;;;;;;43.33;26.52;;;20.00;99.90;;;;;;4969217;28;20047;-95
2022/08/26 04:52:24;;;;;;;42.28;26.55;;;20.00;99.90;;;;;;4987118;28;20097;-96
2022/08/26 04:54:50;;;;;;;40.78;27.98;;;20.00;99.90;;;;;;4987549;28;20085;-94
2022/08/26 04:57:15;;;;;;;40.38;26.73;;;20.00;99.90;;;;;;4988722;28;20053;-93
2022/08/26 04:59:41;;;;;;;40.25;26.30;;;20.00;99.90;;;;;;4979201;28;20121;-95
2022/08/26 05:02:06;;;;;;;42.45;26.67;;;20.00;99.90;;;;;;4974968;28;20050;-93
2022/08/26 05:04:33;;;;;;;37.80;26.60;;;20.00;99.90;;;;;;4957880;28;20101;-94
2022/08/26 05:06:58;;;;;;;41.17;26.73;;;20.20;99.90;;;;;;4974567;28;20078;-93
2022/08/26 05:09:24;;;;;;;38.05;25.63;;;20.10;99.90;;;;;;4974529;28;20074;-94
2022/08/26 05:11:50;;;;;;;35.97;24.98;;;20.10;99.90;;;;;;4957417;28;20500;-94
2022/08/26 05:14:17;;;;;;;37.92;24.92;;;20.20;99.90;;;;;;4956800;28;20062;-94
2022/08/26 05:16:43;;;;;;;37.80;23.80;;;20.50;99.90;;;;;;4972787;28;20046;-93
2022/08/26 05:19:09;;;;;;;36.17;24.30;;;20.30;99.90;;;;;;4956870;28;20061;-93
2022/08/26 05:21:35;;;;;;;37.53;23.48;;;20.10;99.90;;;;;;4957516;28;20554;-94
2022/08/26 05:24:01;;;;;;;39.15;23.85;;;20.20;99.90;;;;;;4960224;28;20039;-95
2022/08/26 05:26:28;;;;;;;36.85;24.00;;;20.20;99.90;;;;;;4978027;28;20047;-94
2022/08/26 05:28:55;;;;;;;36.47;23.20;;;20.30;99.90;;;;;;4962435;28;20550;-93
2022/08/26 05:31:25;;;;;;;36.30;23.42;;;20.30;99.90;;;;;;4960150;28;20043;-94
2022/08/26 05:33:51;;;;;;;33.40;22.23;;;20.30;99.90;;;;;;4960546;28;20059;-94
2022/08/26 05:36:21;;;;;;;41.80;23.65;;;20.50;99.90;;;;;;4960141;28;20058;-93
2022/08/26 05:38:47;;;;;;;33.85;22.48;;;20.40;99.90;;;;;;4960099;28;20536;-94
2022/08/26 05:41:22;;;;;;;36.90;22.75;;;20.40;99.90;;;;;;4960188;28;20487;-94
2022/08/26 05:43:48;;;;;;;31.25;20.90;;;20.40;99.90;;;;;;4984480;28;20026;-95
2022/08/26 05:46:13;;;;;;;32.90;20.98;;;20.50;99.90;;;;;;4991325;28;20454;-94
2022/08/26 05:48:39;;;;;;;35.30;20.48;;;20.50;99.90;;;;;;4960295;28;20043;-95
2022/08/26 05:51:08;;;;;;;31.50;20.92;;;20.80;99.90;;;;;;4960508;28;20467;-95
2022/08/26 05:53:34;;;;;;;31.15;19.50;;;21.10;99.90;;;;;;4960525;28;20043;-95
2022/08/26 05:56:01;;;;;;;33.13;20.15;;;21.20;99.90;;;;;;4960598;28;20459;-94
2022/08/26 05:58:27;;;;;;;33.53;19.58;;;20.60;99.90;;;;;;4959787;28;20082;-93
2022/08/26 06:01:14;;;;;;;29.00;19.33;;;21.30;99.90;;;;;;4959330;28;20047;-83
2022/08/26 06:03:44;;;;;;;30.48;19.10;;;20.70;99.90;;;;;;4958997;28;20050;-84
2022/08/26 06:06:13;;;;;;;30.55;18.42;;;20.70;99.90;;;;;;4975723;28;20049;-85
2022/08/26 06:08:40;;;;;;;25.08;17.70;;;20.70;99.90;;;;;;4976036;28;20499;-88
2022/08/26 06:11:09;;;;;;;29.05;18.40;;;20.80;99.90;;;;;;4957638;28;20047;-83
2022/08/26 06:13:35;;;;;;;30.92;17.35;;;21.00;99.90;;;;;;4957661;28;20093;-84
2022/08/26 06:16:10;;;;;;;27.50;17.10;;;20.80;99.90;;;;;;4976428;28;20086;-93
2022/08/26 06:18:39;;;;;;;26.92;17.33;;;21.00;99.90;;;;;;4975777;28;20047;-88
2022/08/26 06:21:19;;;;;;;28.40;17.95;;;21.00;99.90;;;;;;4957607;28;20049;-91
2022/08/26 06:26:31;;;;;;;28.35;17.60;;;21.10;99.90;;;;;;4957714;28;20050;-89
2022/08/26 06:28:57;;;;;;;27.35;15.40;;;20.90;99.90;;;;;;4960424;28;20487;-89
2022/08/26 06:31:24;;;;;;;24.98;15.10;;;21.40;99.90;;;;;;4976726;28;20062;-90
2022/08/26 06:33:50;;;;;;;24.58;15.10;;;21.30;99.90;;;;;;4957223;28;20544;-90
2022/08/26 06:36:21;;;;;;;28.90;15.85;;;20.90;99.90;;;;;;4975713;28;20038;-86
2022/08/26 06:38:48;;;;;;;24.50;15.50;;;21.40;99.90;;;;;;4976167;28;20062;-91
2022/08/26 06:41:16;;;;;;;24.73;14.60;;;21.00;99.90;;;;;;4975633;28;20134;-93
2022/08/26 06:43:45;;;;;;;23.80;15.10;;;21.10;99.90;;;;;;4976772;28;20125;-91
2022/08/26 06:46:13;;;;;;;26.60;14.32;;;21.00;99.90;;;;;;4958832;28;20058;-91
2022/08/26 06:48:39;;;;;;;25.30;15.15;;;21.10;99.90;;;;;;4962812;28;20054;-91
2022/08/26 06:51:14;;;;;;;23.83;14.95;;;21.10;99.90;;;;;;4988726;28;20066;-93
2022/08/26 06:53:41;;;;;;;23.33;14.93;;;21.30;99.90;;;;;;4962806;28;20057;-94
2022/08/26 06:56:09;;;;;;;22.65;14.48;;;21.20;99.90;;;;;;4961398;28;20039;-93
2022/08/26 06:58:36;;;;;;;26.00;14.40;;;21.20;99.90;;;;;;4963045;28;20031;-92
2022/08/26 07:01:03;;;;;;;25.00;14.18;;;21.30;99.90;;;;;;4978273;28;20055;-92
2022/08/26 07:03:31;;;;;;;21.48;13.93;;;21.40;99.90;;;;;;4975408;28;20053;-91
2022/08/26 07:06:01;;;;;;;25.15;14.43;;;22.20;99.90;;;;;;4958584;28;20097;-92
2022/08/26 07:08:33;;;;;;;23.55;13.95;;;22.00;99.90;;;;;;4957249;28;20160;-91
2022/08/26 07:11:12;;;;;;;23.90;13.60;;;22.10;99.90;;;;;;4958574;28;20376;-90
2022/08/26 07:13:38;;;;;;;22.88;14.57;;;22.50;99.90;;;;;;4951443;28;20081;-92
2022/08/26 07:16:16;;;;;;;22.63;14.45;;;22.30;99.90;;;;;;4974699;28;20039;-92
2022/08/26 07:18:43;;;;;;;22.40;14.77;;;22.00;99.90;;;;;;4972275;28;20039;-93
2022/08/26 07:21:28;;;;;;;19.73;13.38;;;22.30;99.90;;;;;;4977459;28;20141;-93
2022/08/26 07:23:54;;;;;;;22.30;14.02;;;21.90;99.90;;;;;;4959258;28;20042;-91
2022/08/26 07:26:36;;;;;;;22.30;13.65;;;21.90;99.90;;;;;;4958159;28;20043;-94
2022/08/26 07:29:02;;;;;;;21.90;12.52;;;21.80;99.90;;;;;;4970713;28;20043;-94
2022/08/26 07:31:30;;;;;;;19.98;12.00;;;21.90;99.90;;;;;;4974150;28;20471;-90
2022/08/26 07:34:03;;;;;;;20.63;11.40;;;22.20;99.90;;;;;;4956876;28;20043;-90
2022/08/26 07:36:29;;;;;;;18.85;11.52;;;22.20;99.90;;;;;;4948472;28;20102;-91
2022/08/26 07:39:27;;;;;;;19.45;11.15;;;22.40;99.90;;;;;;4957368;28;20515;-94
2022/08/26 07:41:52;;;;;;;20.15;11.35;;;22.40;99.90;;;;;;4967153;28;20085;-94
2022/08/26 07:44:35;;;;;;;17.45;9.80;;;23.30;99.90;;;;;;4956442;28;20482;-91
2022/08/26 07:47:23;;;;;;;22.15;9.88;;;23.30;99.90;;;;;;4974279;28;20446;-88
2022/08/26 07:49:56;;;;;;;21.17;9.02;;;22.50;99.90;;;;;;4974869;28;20562;-88
2022/08/26 07:52:44;;;;;;;16.85;9.13;;;23.30;99.90;;;;;;4956979;28;20041;-93
2022/08/26 07:55:10;;;;;;;16.92;8.40;;;22.50;99.90;;;;;;4958021;28;20070;-93
2022/08/26 07:57:36;;;;;;;19.92;9.32;;;22.50;99.90;;;;;;4974011;28;20610;-92
2022/08/26 08:00:31;;;;;;;17.55;8.68;;;22.50;99.90;;;;;;4974642;28;20038;-93
2022/08/26 08:03:04;;;;;;;17.85;9.18;;;22.60;99.90;;;;;;4980245;28;20050;-96
2022/08/26 08:05:44;;;;;;;16.17;8.10;;;22.70;99.90;;;;;;4992367;28;20046;-96
2022/08/26 08:08:26;;;;;;;16.30;8.55;;;22.80;99.90;;;;;;4982985;28;20043;-96
2022/08/26 08:10:54;;;;;;;17.10;8.10;;;23.00;99.90;;;;;;4963285;28;20126;-96
2022/08/26 08:13:29;;;;;;;19.30;8.02;;;23.10;99.90;;;;;;4961797;28;20053;-96
2022/08/26 08:22:15;;;;;;;15.48;7.25;;;23.10;99.90;;;;;;5356126;23;20309;-96
2022/08/26 08:24:50;;;;;;;14.25;7.93;;;23.10;99.90;;;;;;5156408;23;20054;-96
2022/08/26 08:40:32;;;;;;;18.27;7.28;;;23.00;99.90;;;;;;4963447;29;20059;-95
2022/08/26 08:43:47;;;;;;;16.48;6.95;;;22.80;99.90;;;;;;4964065;29;20079;-96
2022/08/26 08:46:34;;;;;;;14.32;6.88;;;23.30;99.90;;;;;;4967255;29;20059;-96
2022/08/26 08:49:03;;;;;;;14.80;6.97;;;23.40;99.90;;;;;;5511399;23;20046;-93
2022/08/26 08:52:03;;;;;;;15.77;6.88;;;23.50;99.90;;;;;;4999416;28;20022;-96
2022/08/26 08:54:54;;;;;;;12.95;6.18;;;23.60;99.90;;;;;;5011062;28;20054;-95
2022/08/26 09:12:33;;;;;;;13.52;6.18;;;23.70;99.90;;;;;;5026470;23;20058;-93
2022/08/26 09:15:46;;;;;;;16.30;6.78;;;23.60;99.90;;;;;;4968283;29;20051;-95
2022/08/26 09:21:51;;;;;;;14.50;6.07;;;23.70;99.90;;;;;;5966313;23;20025;-92
2022/08/26 09:24:46;;;;;;;14.35;5.95;;;23.80;99.90;;;;;;4958255;29;20047;-89
2022/08/26 09:28:02;;;;;;;12.45;5.53;;;23.80;99.90;;;;;;4976753;23;20051;-89
2022/08/26 09:30:33;;;;;;;13.60;5.82;;;23.60;99.90;;;;;;4958397;28;20094;-84
2022/08/26 09:33:27;;;;;;;16.08;5.43;;;24.00;99.90;;;;;;4983356;23;20054;-88
2022/08/26 09:36:13;;;;;;;13.10;5.25;;;23.70;99.90;;;;;;4959558;29;20039;-91
2022/08/26 09:38:40;;;;;;;14.18;5.97;;;23.80;99.90;;;;;;4957050;29;20530;-91
2022/08/26 09:41:24;;;;;;;11.02;4.97;;;24.20;99.90;;;;;;4957401;29;20503;-89
2022/08/26 09:44:10;;;;;;;12.15;5.18;;;23.60;99.90;;;;;;4939274;29;20050;-91
2022/08/26 09:46:36;;;;;;;12.85;4.72;;;23.60;99.90;;;;;;4940544;29;20083;-90
2022/08/26 09:49:22;;;;;;;14.25;5.40;;;23.50;99.90;;;;;;4939957;29;20130;-90
2022/08/26 09:52:01;;;;;;;16.40;5.35;;;23.40;99.90;;;;;;4958385;28;20055;-89
2022/08/26 09:54:27;;;;;;;13.65;5.18;;;23.50;99.90;;;;;;4940702;29;20521;-90
2022/08/26 09:57:29;;;;;;;12.18;5.22;;;23.50;99.90;;;;;;4940133;29;20051;-89
2022/08/26 10:01:13;;;;;;;15.38;5.55;;;23.50;99.90;;;;;;4935299;29;20110;-96
2022/08/26 10:04:06;;;;;;;13.33;5.27;;;23.50;99.90;;;;;;4882642;29;20048;-83
2022/08/26 10:06:54;;;;;;;10.68;4.13;;;23.40;99.90;;;;;;4898112;29;20053;-90
2022/08/26 10:09:43;;;;;;;13.02;4.20;;;23.20;99.90;;;;;;4880775;29;20404;-90
2022/08/26 10:12:24;;;;;;;11.88;3.85;;;23.90;99.90;;;;;;4882282;29;20087;-92
2022/08/26 10:15:00;;;;;;;13.65;3.83;;;23.20;99.90;;;;;;4924897;28;20051;-95
2022/08/26 10:17:47;;;;;;;12.48;4.20;;;23.10;99.90;;;;;;4968503;29;20051;-96
2022/08/26 10:20:24;;;;;;;11.95;3.60;;;23.20;99.90;;;;;;4942353;29;20047;-96
2022/08/26 10:23:13;;;;;;;15.02;4.43;;;23.10;99.90;;;;;;4972159;28;20034;-93
2022/08/26 10:25:47;;;;;;;12.02;3.95;;;23.20;99.90;;;;;;4947662;29;20054;-95
2022/08/26 10:29:06;;;;;;;;;;;;;;;;;;;;;
2022/08/26 10:32:44;;;;;;;10.73;3.00;;;23.00;99.90;;;;;;4932961;29;20139;-94
2022/08/26 10:35:29;;;;;;;11.30;3.40;;;22.80;99.90;;;;;;5223477;23;20054;-93
2022/08/26 10:38:14;;;;;;;13.40;3.83;;;22.80;99.90;;;;;;4979611;28;20137;-91
2022/08/26 10:41:24;;;;;;;12.02;3.30;;;23.10;99.90;;;;;;4977310;28;20042;-90
2022/08/26 10:43:51;;;;;;;11.85;3.42;;;22.80;99.90;;;;;;4915580;29;20418;-89
2022/08/26 10:46:42;;;;;;;9.82;3.05;;;23.40;99.90;;;;;;4899809;29;20064;-90
2022/08/26 10:49:26;;;;;;;11.25;3.15;;;23.50;99.90;;;;;;4949060;28;20054;-90
2022/08/26 10:51:55;;;;;;;;;;;22.90;99.90;;;;;;4980287;28;20039;-93
2022/08/26 10:58:11;;;;;;;10.50;2.92;;;22.90;99.90;;;;;;4944279;28;20082;-91
2022/08/26 11:03:52;;;;;;;9.10;3.10;;;23.40;99.90;;;;;;4963658;28;20051;-91
2022/08/26 11:06:17;;;;;;;8.57;2.70;;;22.70;99.90;;;;;;4959543;28;20047;-90
2022/08/26 11:09:00;;;;;;;9.38;2.65;;;22.70;99.90;;;;;;4977853;28;20104;-92
2022/08/26 11:11:44;;;;;;;10.50;3.10;;;22.70;99.90;;;;;;4958401;28;20079;-90
2022/08/26 11:14:09;;;;;;;10.15;2.60;;;22.80;99.90;;;;;;4958340;28;20054;-91
2022/08/26 11:16:39;;;;;;;9.60;2.72;;;22.80;99.90;;;;;;4974743;28;20042;-91
2022/08/26 11:19:08;;;;;;;9.73;2.88;;;22.70;99.90;;;;;;4957518;28;20053;-90
2022/08/26 11:22:24;;;;;;;11.23;2.83;;;22.80;99.90;;;;;;4957217;28;20042;-91
2022/08/26 11:24:55;;;;;;;9.93;2.72;;;22.90;99.90;;;;;;4958646;28;20043;-94
2022/08/26 11:27:27;;;;;;;10.25;2.78;;;23.00;99.90;;;;;;4975483;28;20483;-92
2022/08/26 11:30:07;;;;;;;9.95;2.67;;;22.90;99.90;;;;;;4957899;28;20495;-89
2022/08/26 11:32:32;;;;;;;10.45;2.78;;;22.90;99.90;;;;;;4967776;28;20059;-96
2022/08/26 11:37:49;;;;;;;10.50;2.83;;;22.90;99.90;;;;;;4965178;28;20130;-92
2022/08/26 11:40:42;;;;;;;14.85;3.15;;;22.90;99.90;;;;;;5248033;23;20050;-95
2022/08/26 11:46:25;;;;;;;12.18;3.20;;;23.00;99.90;;;;;;5431295;23;20027;-96
2022/08/26 11:49:16;;;;;;;;;;;23.20;99.90;;;;;;5460543;23;20119;31
2022/08/26 11:51:42;;;;;;;10.73;3.15;;;23.00;99.90;;;;;;5243564;23;19923;-95
2022/08/26 11:54:30;;;;;;;9.15;2.92;;;22.80;99.90;;;;;;4930773;29;20075;-96
2022/08/26 12:45:27;;;;;;;9.25;2.95;;;23.00;99.90;;;;;;4941726;29;20048;-91
2022/08/26 12:48:12;;;;;;;12.15;3.25;;;23.20;99.90;;;;;;4919663;29;20055;-87
2022/08/26 12:50:52;;;;;;;11.55;2.85;;;23.30;99.90;;;;;;4922238;29;20130;-88
2022/08/26 12:53:22;;;;;;;12.00;2.90;;;23.30;99.90;;;;;;4918237;29;20043;-90
2022/08/26 12:56:16;;;;;;;12.77;3.33;;;23.30;99.90;;;;;;4919699;29;20440;-83
2022/08/26 12:59:26;;;;;;;13.63;3.83;;;23.80;99.90;;;;;;4922010;29;20047;-87
2022/08/26 13:01:52;;;;;;;13.48;3.10;;;23.00;99.90;;;;;;4876102;29;20041;-88
2022/08/26 13:04:38;;;;;;;13.43;3.30;;;22.70;99.90;;;;;;4860994;29;20605;-89
2022/08/26 13:07:25;;;;;;;10.45;2.83;;;22.40;99.90;;;;;;4876322;29;20060;-88
2022/08/26 13:09:53;;;;;;;11.80;2.97;;;22.20;99.90;;;;;;4861102;29;20093;-87
2022/08/26 13:12:39;;;;;;;10.68;3.17;;;22.20;99.90;;;;;;4902823;29;20099;-88
2022/08/26 13:15:17;;;;;;;9.27;2.75;;;22.00;99.90;;;;;;4927235;29;20093;-91
2022/08/26 13:17:55;;;;;;;10.68;2.80;;;22.40;99.90;;;;;;4945157;29;20054;-89
2022/08/26 13:20:22;;;;;;;8.88;2.72;;;22.10;99.90;;;;;;4918014;29;20056;-89
2022/08/26 13:22:48;;;;;;;11.55;3.47;;;21.80;99.90;;;;;;4917518;29;20064;-87
2022/08/26 13:25:29;;;;;;;10.85;3.05;;;21.90;99.90;;;;;;4917751;29;20075;-88
2022/08/26 13:27:55;;;;;;;12.43;3.05;;;22.50;99.90;;;;;;4935919;29;20044;-84
2022/08/26 13:30:21;;;;;;;8.68;2.78;;;22.80;99.90;;;;;;4917446;29;20040;-90
2022/08/26 13:32:47;;;;;;;13.55;3.38;;;23.00;99.90;;;;;;4917790;29;20408;-88
2022/08/26 13:35:12;;;;;;;9.50;2.70;;;22.30;99.90;;;;;;4915918;29;20083;-87
2022/08/26 13:37:38;;;;;;;11.82;2.80;;;22.30;99.90;;;;;;4933590;29;20051;-91
2022/08/26 13:40:05;;;;;;;10.10;3.00;;;22.40;99.90;;;;;;4933473;29;20048;-90
2022/08/26 13:42:31;;;;;;;10.88;2.67;;;22.00;99.90;;;;;;4917716;29;20063;-92
2022/08/26 13:44:57;;;;;;;11.05;2.92;;;22.00;99.90;;;;;;4943721;29;20040;-89
2022/08/26 13:47:33;;;;;;;9.30;2.60;;;21.90;99.90;;;;;;4942438;29;20051;-89
2022/08/26 13:49:59;;;;;;;10.45;3.10;;;22.00;99.90;;;;;;4920655;29;20082;-90
2022/08/26 13:52:43;;;;;;;11.30;2.80;;;22.40;99.90;;;;;;4921044;29;20440;-90
2022/08/26 13:55:09;;;;;;;9.68;2.80;;;22.00;99.90;;;;;;4938398;29;20043;-90
2022/08/26 13:57:51;;;;;;;7.55;2.70;;;22.00;99.90;;;;;;4920360;29;20092;-89
2022/08/26 14:00:17;;;;;;;10.35;2.67;;;22.60;99.90;;;;;;4920737;29;20054;-89
2022/08/26 14:02:42;;;;;;;8.43;2.50;;;21.70;99.90;;;;;;4938126;29;20036;-89
2022/08/26 14:05:12;;;;;;;7.55;2.50;;;22.10;99.90;;;;;;4926561;29;20039;-88
2022/08/26 14:07:38;;;;;;;8.20;2.42;;;22.10;99.90;;;;;;4940207;29;20055;-89
2022/08/26 14:10:04;;;;;;;8.65;2.58;;;21.80;99.90;;;;;;4914673;29;20044;-87
2022/08/26 14:12:44;;;;;;;8.70;2.30;;;21.90;99.90;;;;;;4913360;29;20069;-88
2022/08/26 14:15:22;;;;;;;8.65;2.53;;;22.60;99.90;;;;;;4915680;29;20100;-89
2022/08/26 14:17:48;;;;;;;8.40;2.60;;;22.00;99.90;;;;;;4919040;29;20119;-91
2022/08/26 14:20:26;;;;;;;9.80;2.55;;;22.10;99.90;;;;;;4919627;29;20054;-88
2022/08/26 14:23:10;;;;;;;8.70;2.40;;;22.20;99.90;;;;;;4907699;29;20050;-89
2022/08/26 14:25:35;;;;;;;9.05;2.53;;;22.30;99.90;;;;;;4903862;29;20492;-91
2022/08/26 14:28:01;;;;;;;9.98;2.33;;;22.20;99.90;;;;;;4903988;29;20051;-90
2022/08/26 14:30:40;;;;;;;8.93;2.33;;;22.10;99.90;;;;;;4902993;29;20048;-91
2022/08/26 14:33:08;;;;;;;10.00;2.45;;;22.70;99.90;;;;;;4902760;29;20044;-91
2022/08/26 14:35:43;;;;;;;7.57;2.30;;;21.50;99.90;;;;;;4920662;29;20104;-91
2022/08/26 14:38:08;;;;;;;6.85;2.30;;;22.10;99.90;;;;;;4905310;29;20052;-94
2022/08/26 14:40:56;;;;;;;8.60;2.58;;;21.60;99.90;;;;;;4905799;29;20047;-95
2022/08/26 14:46:38;;;;;;;7.75;2.50;;;22.00;99.90;;;;;;4928376;29;20139;-96
2022/08/26 14:49:16;;;;;;;8.63;2.40;;;21.40;99.90;;;;;;4915582;29;20575;-91
2022/08/26 14:51:42;;;;;;;8.00;2.30;;;22.20;99.90;;;;;;4927513;29;20114;-93